Time;durP1;ratioP1;P1;durP2;ratioP2;P2;SDS_P1;SDS_P2;PMS_P1;PMS_P2;Temp;Humidity;BMP_temperature;BMP_pressure;BME280_temperature;BME280_humidity;BME280_pressure;Samples;Min_cycle;Max_cycle;Signal;HPM_P1;HPM_P2
2022/07/16 00:02:06;;;;;;;13.63;5.47;;;16.00;89.00;;;;;;5001056;28;20102;-75
2022/07/16 00:04:32;;;;;;;11.40;6.25;;;16.00;89.00;;;;;;4999110;28;20032;-74
2022/07/16 00:06:59;;;;;;;10.27;5.38;;;16.00;89.10;;;;;;4988892;28;20102;-74
2022/07/16 00:09:25;;;;;;;14.75;5.65;;;16.00;89.00;;;;;;4999497;28;20026;-74
2022/07/16 00:11:52;;;;;;;11.02;6.65;;;16.00;89.50;;;;;;5003296;28;20026;-74
2022/07/16 00:14:19;;;;;;;16.35;5.82;;;16.00;88.70;;;;;;4992716;28;20058;-75
2022/07/16 00:16:45;;;;;;;16.73;6.18;;;16.00;89.00;;;;;;4988174;28;20026;-74
2022/07/16 00:19:23;;;;;;;9.57;4.28;;;16.00;89.50;;;;;;5006045;28;20522;-74
2022/07/16 00:21:55;;;;;;;11.05;4.85;;;15.90;89.10;;;;;;5015798;28;20470;-74
2022/07/16 00:24:22;;;;;;;35.03;6.47;;;15.90;89.20;;;;;;5000844;28;20068;-74
2022/07/16 00:26:49;;;;;;;11.45;5.28;;;15.90;89.50;;;;;;4982259;28;20102;-74
2022/07/16 00:29:20;;;;;;;13.85;5.43;;;15.90;89.40;;;;;;4995416;27;20505;-76
2022/07/16 00:31:48;;;;;;;11.93;4.70;;;15.90;89.10;;;;;;4995595;28;20084;-74
2022/07/16 00:34:16;;;;;;;10.02;5.05;;;15.90;88.80;;;;;;5006033;28;20030;-74
2022/07/16 00:36:42;;;;;;;8.07;4.20;;;15.90;88.70;;;;;;5005218;28;20038;-75
2022/07/16 00:39:10;;;;;;;9.32;4.15;;;15.90;88.60;;;;;;4994526;28;20019;-74
2022/07/16 00:41:38;;;;;;;8.48;3.88;;;15.80;88.50;;;;;;5025714;28;20030;-75
2022/07/16 00:44:07;;;;;;;16.65;3.80;;;15.80;88.30;;;;;;4997821;28;20042;-74
2022/07/16 00:46:35;;;;;;;8.55;3.42;;;15.80;88.20;;;;;;4995238;28;20012;-74
2022/07/16 00:49:02;;;;;;;5.35;3.03;;;15.80;88.00;;;;;;4990870;28;20023;-74
2022/07/16 00:51:29;;;;;;;8.52;3.35;;;15.70;87.70;;;;;;4984995;28;20022;-74
2022/07/16 00:53:57;;;;;;;7.07;3.70;;;15.70;87.70;;;;;;4985082;28;20031;-75
2022/07/16 00:56:24;;;;;;;7.05;4.22;;;15.70;87.50;;;;;;4989229;27;20092;-75
2022/07/16 00:58:51;;;;;;;8.32;3.78;;;15.70;87.60;;;;;;4983601;28;20050;-74
2022/07/16 01:01:19;;;;;;;8.90;4.47;;;15.70;87.50;;;;;;5012556;28;20033;-74
2022/07/16 01:03:46;;;;;;;10.50;5.10;;;15.70;87.50;;;;;;4992824;28;20380;-76
2022/07/16 01:06:14;;;;;;;7.60;4.30;;;15.70;87.40;;;;;;4995296;28;20625;-75
2022/07/16 01:08:43;;;;;;;7.75;4.80;;;15.70;87.40;;;;;;5017351;28;20027;-73
2022/07/16 01:11:12;;;;;;;8.73;5.00;;;15.70;87.30;;;;;;5011534;28;20030;-74
2022/07/16 01:13:42;;;;;;;17.60;5.57;;;15.60;87.30;;;;;;4985458;28;20033;-74
2022/07/16 01:16:10;;;;;;;9.60;3.70;;;15.60;87.30;;;;;;4998007;28;20505;-74
2022/07/16 01:19:16;;;;;;;8.02;4.55;;;15.70;87.30;;;;;;5016562;28;20141;-76
2022/07/16 01:22:22;;;;;;;7.10;3.85;;;15.60;87.00;;;;;;4994328;28;20550;-75
2022/07/16 01:25:28;;;;;;;12.27;5.28;;;15.70;86.80;;;;;;4985321;28;20044;-76
2022/07/16 01:28:34;;;;;;;10.23;4.18;;;15.60;86.90;;;;;;5007975;28;20068;-74
2022/07/16 01:31:40;;;;;;;6.82;3.50;;;15.60;87.20;;;;;;4989096;28;20055;-74
2022/07/16 01:34:46;;;;;;;5.03;3.25;;;15.60;87.10;;;;;;4997942;28;20719;-74
2022/07/16 01:37:53;;;;;;;7.32;3.67;;;15.60;87.10;;;;;;4992238;28;20662;-75
2022/07/16 01:40:59;;;;;;;15.85;3.50;;;15.60;86.90;;;;;;5018028;28;20040;-73
2022/07/16 01:44:08;;;;;;;7.65;2.63;;;15.50;86.70;;;;;;4999402;28;20023;-73
2022/07/16 01:47:14;;;;;;;8.80;2.95;;;15.50;86.90;;;;;;5026686;28;20738;-74
2022/07/16 01:50:20;;;;;;;5.28;2.80;;;15.40;86.80;;;;;;5002423;28;20385;-76
2022/07/16 01:53:28;;;;;;;5.70;2.47;;;15.50;86.90;;;;;;4999491;28;20076;-75
2022/07/16 01:56:34;;;;;;;9.52;3.50;;;15.50;86.70;;;;;;4985985;28;20059;-74
2022/07/16 01:59:40;;;;;;;9.23;2.47;;;15.40;86.50;;;;;;4990824;28;20037;-74
2022/07/16 02:02:46;;;;;;;8.20;2.30;;;15.40;86.40;;;;;;4994031;28;20034;-74
2022/07/16 02:05:52;;;;;;;7.15;2.20;;;15.40;86.20;;;;;;4999708;28;20050;-74
2022/07/16 02:08:58;;;;;;;4.97;2.13;;;15.40;85.90;;;;;;4991874;28;20022;-74
2022/07/16 02:12:04;;;;;;;5.70;2.33;;;15.40;85.80;;;;;;5007590;28;20022;-74
2022/07/16 02:15:10;;;;;;;9.55;2.30;;;15.40;85.80;;;;;;5009745;28;20059;-73
2022/07/16 02:18:16;;;;;;;3.42;2.50;;;15.40;85.80;;;;;;4987437;28;20026;-74
2022/07/16 02:21:22;;;;;;;3.30;1.95;;;15.30;85.70;;;;;;5007003;28;20031;-74
2022/07/16 02:24:29;;;;;;;4.97;2.30;;;15.30;85.70;;;;;;5002313;28;20037;-74
2022/07/16 02:27:35;;;;;;;24.38;20.60;;;15.30;85.80;;;;;;5001018;28;20022;-75
2022/07/16 02:30:41;;;;;;;34.00;18.55;;;15.20;85.90;;;;;;4976002;28;20027;-73
2022/07/16 02:33:09;;;;;;;11.65;7.55;;;15.20;86.30;;;;;;5008500;28;20035;-73
2022/07/16 02:35:36;;;;;;;10.68;4.70;;;15.30;86.90;;;;;;5000669;28;20030;-74
2022/07/16 02:38:03;;;;;;;20.63;4.78;;;15.30;87.10;;;;;;4983878;28;20019;-77
2022/07/16 02:40:32;;;;;;;13.38;3.03;;;15.30;86.90;;;;;;4996964;28;20391;-73
2022/07/16 02:42:59;;;;;;;14.07;2.80;;;15.30;86.70;;;;;;5013365;28;20026;-73
2022/07/16 02:45:26;;;;;;;4.25;2.03;;;15.20;86.50;;;;;;4984544;28;20042;-73
2022/07/16 02:47:52;;;;;;;8.63;3.22;;;15.20;86.30;;;;;;4991734;28;20075;-74
2022/07/16 02:50:19;;;;;;;7.40;2.20;;;15.20;86.20;;;;;;4983424;28;20084;-73
2022/07/16 02:52:46;;;;;;;6.15;2.00;;;15.20;86.00;;;;;;4992304;28;20042;-74
2022/07/16 02:55:12;;;;;;;5.88;2.72;;;15.20;86.00;;;;;;4999538;28;20042;-73
2022/07/16 02:57:39;;;;;;;17.63;2.83;;;15.20;85.90;;;;;;5006588;28;20482;-73
2022/07/16 03:00:08;;;;;;;12.55;2.38;;;15.10;85.80;;;;;;5021961;28;20053;-74
2022/07/16 03:02:34;;;;;;;6.53;1.88;;;15.10;85.90;;;;;;5021714;28;20544;-74
2022/07/16 03:05:01;;;;;;;5.20;3.22;;;15.10;85.90;;;;;;5005545;28;20400;-72
2022/07/16 03:07:28;;;;;;;10.73;3.40;;;15.10;85.70;;;;;;4988230;28;20392;-76
2022/07/16 03:09:54;;;;;;;3.70;2.83;;;15.10;85.60;;;;;;4988558;28;20028;-74
2022/07/16 03:12:21;;;;;;;2.90;1.75;;;15.10;85.60;;;;;;5013750;28;20020;-74
2022/07/16 03:14:47;;;;;;;2.97;1.88;;;15.10;85.50;;;;;;5007869;28;20044;-73
2022/07/16 03:17:14;;;;;;;4.55;1.90;;;15.00;85.30;;;;;;5004425;28;20439;-73
2022/07/16 03:19:40;;;;;;;3.05;1.75;;;15.00;85.10;;;;;;4990930;28;20058;-75
2022/07/16 03:22:08;;;;;;;20.50;2.85;;;15.00;84.90;;;;;;5017022;28;20019;-73
2022/07/16 03:24:34;;;;;;;20.35;2.20;;;15.00;85.10;;;;;;4990919;28;20123;-74
2022/07/16 03:27:01;;;;;;;7.38;1.95;;;15.00;85.10;;;;;;4993599;28;20022;-76
2022/07/16 03:29:27;;;;;;;11.02;2.30;;;15.00;85.00;;;;;;4999457;28;20034;-75
2022/07/16 03:31:54;;;;;;;16.40;3.75;;;15.00;84.90;;;;;;5016012;28;20089;-74
2022/07/16 03:34:21;;;;;;;5.28;1.73;;;14.90;84.80;;;;;;4989469;28;20500;-73
2022/07/16 03:36:47;;;;;;;7.03;2.30;;;14.90;84.90;;;;;;5026364;28;20015;-74
2022/07/16 03:39:14;;;;;;;12.50;2.60;;;14.90;84.80;;;;;;4988365;28;20437;-75
2022/07/16 03:41:41;;;;;;;33.13;3.83;;;14.90;84.80;;;;;;4993212;28;20038;-74
2022/07/16 03:44:09;;;;;;;12.13;4.75;;;14.90;84.80;;;;;;4996381;28;20042;-73
2022/07/16 03:46:37;;;;;;;14.20;6.40;;;14.90;85.30;;;;;;4996176;28;20037;-76
2022/07/16 03:49:04;;;;;;;15.70;6.13;;;14.90;85.30;;;;;;5005177;28;20115;-73
2022/07/16 03:51:31;;;;;;;11.32;4.00;;;14.80;85.30;;;;;;5007925;28;20026;-74
2022/07/16 03:53:57;;;;;;;7.80;3.60;;;14.80;85.40;;;;;;5012704;28;20442;-74
2022/07/16 03:56:27;;;;;;;12.50;2.90;;;14.80;85.30;;;;;;4988137;28;20029;-73
2022/07/16 03:58:54;;;;;;;5.20;2.20;;;14.80;85.20;;;;;;5006059;28;20488;-74
2022/07/16 04:01:21;;;;;;;5.50;2.95;;;14.80;85.10;;;;;;5004551;28;20388;-73
2022/07/16 04:03:47;;;;;;;6.40;2.92;;;14.80;85.10;;;;;;5003159;28;20027;-74
2022/07/16 04:06:14;;;;;;;4.35;2.15;;;14.80;84.80;;;;;;4987596;28;20018;-76
2022/07/16 04:08:41;;;;;;;2.75;2.17;;;14.80;84.70;;;;;;5001304;28;20038;-77
2022/07/16 04:11:07;;;;;;;6.80;2.70;;;14.80;84.70;;;;;;4993402;27;20061;-76
2022/07/16 04:13:36;;;;;;;8.95;2.75;;;14.80;84.80;;;;;;4993896;28;20026;-79
2022/07/16 04:16:03;;;;;;;38.85;4.68;;;14.70;84.70;;;;;;4991062;28;20070;-77
2022/07/16 04:18:29;;;;;;;9.63;2.33;;;14.70;84.80;;;;;;4997647;28;20043;-75
2022/07/16 04:20:56;;;;;;;6.18;2.10;;;14.70;84.80;;;;;;4994369;28;20022;-77
2022/07/16 04:23:22;;;;;;;9.55;3.28;;;14.70;84.90;;;;;;4987106;28;20027;-78
2022/07/16 04:25:49;;;;;;;3.95;1.80;;;14.70;84.80;;;;;;4994379;28;20028;-77
2022/07/16 04:28:15;;;;;;;3.85;2.03;;;14.70;84.80;;;;;;5000821;28;20026;-78
2022/07/16 04:30:42;;;;;;;5.18;1.90;;;14.70;84.80;;;;;;4992556;28;20523;-78
2022/07/16 04:33:08;;;;;;;10.27;3.05;;;14.70;84.90;;;;;;4988686;28;20026;-76
2022/07/16 04:35:35;;;;;;;11.30;9.73;;;14.70;85.00;;;;;;4988874;28;20041;-75
2022/07/16 04:38:01;;;;;;;17.27;11.07;;;14.60;85.50;;;;;;5011280;28;20027;-82
2022/07/16 04:40:28;;;;;;;6.45;3.47;;;14.70;84.00;;;;;;5021693;28;20593;-81
2022/07/16 04:42:55;;;;;;;8.90;2.90;;;14.50;83.50;;;;;;4993404;28;20297;-79
2022/07/16 04:45:21;;;;;;;12.95;3.60;;;14.50;85.70;;;;;;5000931;28;20390;-77
2022/07/16 04:47:48;;;;;;;8.23;5.35;;;14.40;86.70;;;;;;5010866;28;20023;-78
2022/07/16 04:50:14;;;;;;;9.88;7.75;;;14.40;86.90;;;;;;5001528;28;20473;-81
2022/07/16 04:52:41;;;;;;;6.90;5.85;;;14.50;86.70;;;;;;4991891;28;20034;-79
2022/07/16 04:55:08;;;;;;;8.35;4.00;;;14.50;86.40;;;;;;5012839;27;20109;-81
2022/07/16 04:57:35;;;;;;;5.63;2.67;;;14.50;86.20;;;;;;4987462;28;20030;-80
2022/07/16 05:00:02;;;;;;;3.58;2.45;;;14.50;86.00;;;;;;5005572;28;20027;-77
2022/07/16 05:05:13;;;;;;;6.10;2.40;;;14.50;85.50;;;;;;4978707;28;20473;-77
2022/07/16 05:07:39;;;;;;;10.48;3.25;;;14.50;85.40;;;;;;5008787;28;20197;-75
2022/07/16 05:10:06;;;;;;;5.63;2.80;;;14.50;85.30;;;;;;5004161;28;20543;-74
2022/07/16 05:12:33;;;;;;;12.40;7.22;;;14.50;85.40;;;;;;5006494;27;20032;-79
2022/07/16 05:14:59;;;;;;;14.30;8.57;;;14.40;85.40;;;;;;4987758;28;20401;-73
2022/07/16 05:17:26;;;;;;;9.45;6.00;;;14.40;85.50;;;;;;5021249;28;20053;-77
2022/07/16 05:19:52;;;;;;;13.50;4.28;;;14.40;85.60;;;;;;4987982;28;20042;-77
2022/07/16 05:22:19;;;;;;;10.15;4.07;;;14.50;85.60;;;;;;5006818;28;20030;-75
2022/07/16 05:24:45;;;;;;;13.75;10.30;;;14.40;85.80;;;;;;5010802;28;20150;-76
2022/07/16 05:27:12;;;;;;;18.52;11.52;;;14.40;86.00;;;;;;5010252;28;20027;-74
2022/07/16 05:29:38;;;;;;;24.00;16.00;;;14.40;86.20;;;;;;5009576;28;21279;-75
2022/07/16 05:32:05;;;;;;;31.33;16.05;;;14.40;86.10;;;;;;4997825;28;20080;-74
2022/07/16 05:34:31;;;;;;;31.15;12.77;;;14.40;86.10;;;;;;5004569;28;21074;-74
2022/07/16 05:36:58;;;;;;;22.10;8.57;;;14.40;86.20;;;;;;5004870;28;20112;-73
2022/07/16 05:39:24;;;;;;;18.80;8.05;;;14.40;86.30;;;;;;5002395;28;20023;-76
2022/07/16 05:41:51;;;;;;;15.63;6.30;;;14.40;86.20;;;;;;4990747;28;20023;-75
2022/07/16 05:44:17;;;;;;;8.65;5.13;;;14.40;86.10;;;;;;4989165;28;20155;-74
2022/07/16 05:46:44;;;;;;;8.70;4.13;;;14.40;86.00;;;;;;5017695;28;20102;-75
2022/07/16 05:49:10;;;;;;;8.32;4.03;;;14.40;86.10;;;;;;5003314;28;20038;-74
2022/07/16 05:51:37;;;;;;;7.07;3.78;;;14.40;86.10;;;;;;4995749;28;20031;-74
2022/07/16 05:54:03;;;;;;;8.52;3.85;;;14.40;86.10;;;;;;5012841;28;20028;-76
2022/07/16 05:56:30;;;;;;;10.57;3.60;;;14.40;86.20;;;;;;5004211;28;20066;-74
2022/07/16 05:59:02;;;;;;;8.18;4.13;;;14.40;86.30;;;;;;5018196;28;20028;-75
2022/07/16 06:01:31;;;;;;;10.48;3.88;;;14.40;86.60;;;;;;5003011;28;20079;-75
2022/07/16 06:03:58;;;;;;;4.72;3.33;;;14.30;86.50;;;;;;5014664;28;20020;-74
2022/07/16 06:06:25;;;;;;;5.88;3.03;;;14.30;86.50;;;;;;4976734;28;20033;-74
2022/07/16 06:08:51;;;;;;;8.48;4.63;;;14.30;86.50;;;;;;5002142;28;20771;-74
2022/07/16 06:11:18;;;;;;;7.53;4.00;;;14.30;86.50;;;;;;4988233;28;20026;-74
2022/07/16 06:13:44;;;;;;;6.75;3.88;;;14.30;86.50;;;;;;5016768;28;20037;-73
2022/07/16 06:16:11;;;;;;;6.43;3.40;;;14.30;87.20;;;;;;5001049;28;20042;-75
2022/07/16 06:18:37;;;;;;;19.17;4.07;;;14.30;86.70;;;;;;4995078;28;20138;-73
2022/07/16 06:21:04;;;;;;;16.58;3.70;;;14.30;86.80;;;;;;5020144;28;20041;-75
2022/07/16 06:23:30;;;;;;;9.93;4.00;;;14.30;87.20;;;;;;4999036;28;20046;-72
2022/07/16 06:25:57;;;;;;;10.02;5.10;;;14.30;87.30;;;;;;5009781;28;20044;-72
2022/07/16 06:28:23;;;;;;;13.55;4.03;;;14.30;87.20;;;;;;4986254;28;20027;-77
2022/07/16 06:30:50;;;;;;;7.32;4.25;;;14.30;87.20;;;;;;4993444;28;20079;-72
2022/07/16 06:33:16;;;;;;;18.73;3.95;;;14.30;87.20;;;;;;4995804;28;20088;-73
2022/07/16 06:35:43;;;;;;;29.20;7.80;;;14.30;87.20;;;;;;5008049;28;20541;-73
2022/07/16 06:38:09;;;;;;;15.07;4.97;;;14.20;87.40;;;;;;4983994;28;20103;-73
2022/07/16 06:40:36;;;;;;;16.63;5.43;;;14.30;88.30;;;;;;5001849;28;20067;-73
2022/07/16 06:43:02;;;;;;;34.75;6.25;;;14.30;89.00;;;;;;4986890;28;20026;-73
2022/07/16 06:45:29;;;;;;;9.57;4.90;;;14.30;89.50;;;;;;5008764;28;20039;-75
2022/07/16 06:47:55;;;;;;;19.38;11.05;;;14.40;89.70;;;;;;4985178;28;20056;-72
2022/07/16 06:50:25;;;;;;;32.42;22.65;;;14.40;89.90;;;;;;5023341;28;20041;-73
2022/07/16 06:52:52;;;;;;;20.65;15.88;;;14.40;89.80;;;;;;4988018;28;20037;-74
2022/07/16 06:55:18;;;;;;;18.25;11.18;;;14.40;89.60;;;;;;5004291;28;20471;-72
2022/07/16 06:57:46;;;;;;;13.55;8.23;;;14.40;89.70;;;;;;5018969;27;20386;-73
2022/07/16 07:00:13;;;;;;;13.48;6.70;;;14.40;89.80;;;;;;5006699;28;20481;-71
2022/07/16 07:02:39;;;;;;;20.73;6.32;;;14.40;89.90;;;;;;5004128;28;20050;-81
2022/07/16 07:05:06;;;;;;;15.10;5.15;;;14.40;90.00;;;;;;4990798;28;20039;-76
2022/07/16 07:07:33;;;;;;;19.10;11.43;;;14.40;90.10;;;;;;5012220;28;20061;-73
2022/07/16 07:10:00;;;;;;;24.02;17.90;;;14.40;90.10;;;;;;4999107;28;20026;-73
2022/07/16 07:12:26;;;;;;;37.78;27.42;;;14.40;90.20;;;;;;4992559;28;20026;-75
2022/07/16 07:14:52;;;;;;;35.47;23.15;;;14.40;90.30;;;;;;4991214;28;20061;-73
2022/07/16 07:17:19;;;;;;;30.23;18.27;;;14.40;90.40;;;;;;4994543;28;20512;-74
2022/07/16 07:19:45;;;;;;;23.55;14.52;;;14.50;90.40;;;;;;5004903;28;20113;-74
2022/07/16 07:22:12;;;;;;;14.93;10.50;;;14.50;90.40;;;;;;4989330;28;20117;-74
2022/07/16 07:24:38;;;;;;;15.45;8.27;;;14.50;90.50;;;;;;4982239;28;20085;-72
2022/07/16 07:27:05;;;;;;;22.80;7.68;;;14.50;90.60;;;;;;5000006;28;20419;-76
2022/07/16 07:29:32;;;;;;;18.55;8.30;;;14.50;90.60;;;;;;4998802;28;20449;-75
2022/07/16 07:31:58;;;;;;;15.00;7.68;;;14.60;90.80;;;;;;4994314;28;20054;-74
2022/07/16 07:34:25;;;;;;;15.52;8.98;;;14.60;90.90;;;;;;5007022;28;20085;-74
2022/07/16 07:36:51;;;;;;;26.42;10.63;;;14.60;91.00;;;;;;4993489;28;20026;-76
2022/07/16 07:39:18;;;;;;;20.98;7.93;;;14.60;91.20;;;;;;4986318;28;20473;-77
2022/07/16 07:41:45;;;;;;;19.67;9.68;;;14.70;91.40;;;;;;4988848;28;20027;-73
2022/07/16 07:44:11;;;;;;;13.52;9.27;;;14.80;91.60;;;;;;5019926;28;20047;-75
2022/07/16 07:46:38;;;;;;;15.35;10.80;;;14.80;91.70;;;;;;4991412;28;20056;-73
2022/07/16 07:49:05;;;;;;;20.55;11.88;;;14.90;91.80;;;;;;4985282;28;20826;-76
2022/07/16 07:51:31;;;;;;;16.30;11.05;;;14.90;91.80;;;;;;5009403;28;20030;-75
2022/07/16 07:53:58;;;;;;;18.45;12.50;;;15.00;91.90;;;;;;5020786;28;20032;-76
2022/07/16 07:56:24;;;;;;;15.95;11.77;;;15.00;91.90;;;;;;4984426;28;20018;-74
2022/07/16 07:58:51;;;;;;;20.27;11.40;;;15.10;92.00;;;;;;4996865;28;20557;-76
2022/07/16 08:01:17;;;;;;;19.35;12.80;;;15.10;92.10;;;;;;4994812;28;20031;-72
2022/07/16 08:03:44;;;;;;;23.83;13.52;;;15.10;92.20;;;;;;5033916;28;20537;-73
2022/07/16 08:06:10;;;;;;;19.70;13.68;;;15.20;92.30;;;;;;4982756;28;20097;-74
2022/07/16 08:08:36;;;;;;;18.10;14.57;;;15.30;92.50;;;;;;5001282;28;20056;-72
2022/07/16 08:11:03;;;;;;;26.23;16.02;;;15.30;92.50;;;;;;4991917;28;20027;-76
2022/07/16 08:13:29;;;;;;;21.52;14.32;;;15.30;92.60;;;;;;5007135;28;20090;-76
2022/07/16 08:15:56;;;;;;;20.02;14.07;;;15.40;92.60;;;;;;4992497;28;20046;-75
2022/07/16 08:18:22;;;;;;;21.50;13.10;;;15.40;92.60;;;;;;5004572;28;20373;-76
2022/07/16 08:20:49;;;;;;;23.10;12.95;;;15.40;92.60;;;;;;4995077;28;20410;-75
2022/07/16 08:25:44;;;;;;;23.80;12.82;;;15.50;92.90;;;;;;5009215;28;20019;-76
2022/07/16 08:26:02;;;;;;;19.23;12.10;;;15.50;92.90;;;;;;5005619;28;20053;-75
2022/07/16 08:28:28;;;;;;;16.42;10.98;;;15.60;93.10;;;;;;4999701;28;20035;-75
2022/07/16 08:30:54;;;;;;;12.88;11.52;;;15.60;93.20;;;;;;5010588;28;20028;-73
2022/07/16 08:33:21;;;;;;;15.02;11.00;;;15.70;93.40;;;;;;4997822;28;20007;-75
2022/07/16 08:35:47;;;;;;;17.80;11.60;;;15.70;93.40;;;;;;5000230;28;20064;-73
2022/07/16 08:38:14;;;;;;;15.52;9.40;;;15.80;93.40;;;;;;4982568;28;20375;-76
2022/07/16 08:40:42;;;;;;;18.90;8.60;;;15.80;93.40;;;;;;5011770;28;20110;-75
2022/07/16 08:43:09;;;;;;;16.20;5.97;;;15.90;93.50;;;;;;4995332;28;20067;-73
2022/07/16 08:45:36;;;;;;;8.85;4.30;;;16.00;93.80;;;;;;5011591;28;20839;-73
2022/07/16 08:48:03;;;;;;;4.38;2.97;;;16.10;93.30;;;;;;4977249;28;20034;-74
2022/07/16 08:50:30;;;;;;;12.43;3.15;;;16.20;92.80;;;;;;4993536;28;20028;-74
2022/07/16 08:52:58;;;;;;;10.13;2.70;;;16.30;92.30;;;;;;4984043;28;20023;-75
2022/07/16 08:55:26;;;;;;;4.75;1.88;;;16.30;91.80;;;;;;5006460;28;20421;-74
2022/07/16 08:57:53;;;;;;;5.85;1.70;;;16.40;90.60;;;;;;5015038;28;20017;-74
2022/07/16 09:00:21;;;;;;;4.95;1.52;;;16.50;89.90;;;;;;4991785;28;20027;-73
2022/07/16 09:02:47;;;;;;;5.18;1.45;;;16.60;88.70;;;;;;4997092;28;20035;-79
2022/07/16 09:05:15;;;;;;;2.13;1.60;;;16.70;87.50;;;;;;4984606;28;20486;-74
2022/07/16 09:07:41;;;;;;;3.63;0.80;;;16.80;86.40;;;;;;5004601;28;20026;-77
2022/07/16 09:10:09;;;;;;;5.18;1.27;;;17.00;85.40;;;;;;4980875;28;20053;-76
2022/07/16 09:12:45;;;;;;;2.55;1.10;;;17.10;85.40;;;;;;4993205;28;20051;-74
2022/07/16 09:15:30;;;;;;;3.28;1.05;;;17.20;85.20;;;;;;5005187;28;20841;-81
2022/07/16 09:18:13;;;;;;;3.75;1.42;;;17.30;84.00;;;;;;4994912;28;20053;-79
2022/07/16 09:20:50;;;;;;;4.13;1.42;;;17.40;83.10;;;;;;5009387;28;20580;-83
2022/07/16 09:23:31;;;;;;;31.35;3.58;;;17.50;81.50;;;;;;4998777;28;20047;-77
2022/07/16 09:26:04;;;;;;;24.15;4.18;;;17.60;80.50;;;;;;4992874;28;20031;-79
2022/07/16 09:28:50;;;;;;;118.80;13.68;;;17.70;80.50;;;;;;5036895;27;20028;-77
2022/07/16 09:31:32;;;;;;;;;;;17.80;80.40;;;;;;4994116;28;20049;-75
2022/07/16 09:34:14;;;;;;;25.55;16.20;;;17.90;78.80;;;;;;4987128;28;20563;-75
2022/07/16 09:37:05;;;;;;;253.85;31.48;;;18.00;78.60;;;;;;5001636;28;20069;-77
2022/07/16 09:39:34;;;;;;;295.85;34.92;;;18.10;77.30;;;;;;4990852;28;20012;-73
2022/07/16 09:42:00;;;;;;;132.02;14.07;;;18.20;77.80;;;;;;4983453;28;20062;-74
2022/07/16 09:44:34;;;;;;;42.47;8.00;;;18.20;77.50;;;;;;5023788;28;20041;-73
2022/07/16 09:47:02;;;;;;;1.88;1.20;;;18.40;75.50;;;;;;4997969;28;20077;-74
2022/07/16 09:49:31;;;;;;;8.85;2.17;;;18.70;68.50;;;;;;4999863;28;20049;-76
2022/07/16 09:51:58;;;;;;;5.03;1.58;;;19.20;68.00;;;;;;4998472;28;20024;-79
2022/07/16 09:54:33;;;;;;;1.08;0.68;;;19.60;67.00;;;;;;5008772;28;20056;-79
2022/07/16 09:57:13;;;;;;;1.48;1.05;;;20.00;63.60;;;;;;4981997;28;20417;-82
2022/07/16 09:59:40;;;;;;;3.55;0.80;;;20.40;62.30;;;;;;5000957;28;20046;-73
2022/07/16 10:02:07;;;;;;;2.63;1.23;;;20.70;61.10;;;;;;4994571;28;20034;-74
2022/07/16 10:04:34;;;;;;;3.35;1.23;;;21.00;60.80;;;;;;5006196;28;20143;-74
2022/07/16 10:07:00;;;;;;;3.47;1.00;;;21.20;58.50;;;;;;5023636;28;20024;-75
2022/07/16 10:09:28;;;;;;;1.77;1.23;;;21.40;57.60;;;;;;4997938;28;20126;-74
2022/07/16 10:11:56;;;;;;;1.02;0.88;;;21.60;58.40;;;;;;5021232;28;20035;-76
2022/07/16 10:14:25;;;;;;;1.45;1.15;;;21.70;57.10;;;;;;4998525;28;20082;-75
2022/07/16 10:16:56;;;;;;;3.03;1.20;;;21.80;57.70;;;;;;5002825;28;20135;-75
2022/07/16 10:19:23;;;;;;;1.70;0.95;;;21.80;58.40;;;;;;4992664;28;20018;-75
2022/07/16 10:22:20;;;;;;;9.18;2.55;;;21.60;61.50;;;;;;5008930;28;20494;-74
2022/07/16 10:24:53;;;;;;;8.50;6.07;;;21.30;63.10;;;;;;4985653;28;20631;-75
2022/07/16 10:27:32;;;;;;;11.15;6.88;;;21.10;64.00;;;;;;5002736;28;20481;-74
2022/07/16 10:30:13;;;;;;;10.52;3.55;;;20.90;65.30;;;;;;5000746;28;20036;-75
2022/07/16 10:33:02;;;;;;;2.90;2.05;;;20.70;65.70;;;;;;4996814;28;20119;-74
2022/07/16 10:35:40;;;;;;;2.85;1.02;;;20.60;66.30;;;;;;5003084;28;20476;-75
2022/07/16 10:38:29;;;;;;;2.40;1.00;;;20.60;66.80;;;;;;4990351;28;20117;-75
2022/07/16 10:41:15;;;;;;;1.23;1.00;;;20.50;66.50;;;;;;4989244;28;20035;-74
2022/07/16 10:43:43;;;;;;;1.08;0.98;;;20.50;67.30;;;;;;5025906;28;20026;-74
2022/07/16 10:46:11;;;;;;;1.45;0.90;;;20.50;67.20;;;;;;4981337;28;20086;-74
2022/07/16 10:48:38;;;;;;;1.75;0.90;;;20.60;67.50;;;;;;5009575;28;20553;-75
2022/07/16 10:51:18;;;;;;;1.38;1.08;;;20.60;68.00;;;;;;4991448;28;20041;-75
2022/07/16 10:53:57;;;;;;;2.15;1.02;;;20.70;68.30;;;;;;4984014;28;20065;-76
2022/07/16 10:56:44;;;;;;;2.25;1.00;;;20.70;68.10;;;;;;4997398;28;20026;-76
2022/07/16 10:59:13;;;;;;;1.67;1.23;;;20.70;67.70;;;;;;5013062;28;20035;-78
2022/07/16 11:01:42;;;;;;;3.67;1.25;;;20.80;68.10;;;;;;4996143;28;20031;-77
2022/07/16 11:04:10;;;;;;;3.00;1.48;;;20.80;67.90;;;;;;4997773;28;20030;-75
2022/07/16 11:06:39;;;;;;;4.57;1.48;;;20.90;67.60;;;;;;5015080;28;20035;-74
2022/07/16 11:09:08;;;;;;;4.05;1.13;;;21.00;67.70;;;;;;5003645;28;20018;-75
2022/07/16 11:11:40;;;;;;;3.65;1.48;;;21.00;67.40;;;;;;4997709;28;20107;-73
2022/07/16 11:14:09;;;;;;;3.70;1.20;;;21.10;67.20;;;;;;4983031;28;20117;-76
2022/07/16 11:16:47;;;;;;;2.20;1.20;;;21.10;67.10;;;;;;5020048;28;20054;-74
2022/07/16 11:19:13;;;;;;;1.50;1.20;;;21.20;67.00;;;;;;4994957;28;20017;-82
2022/07/16 11:21:54;;;;;;;1.15;0.95;;;21.20;66.60;;;;;;4996079;28;20046;-77
2022/07/16 11:24:21;;;;;;;1.00;1.00;;;21.30;66.50;;;;;;5013657;27;20018;-76
2022/07/16 11:26:48;;;;;;;1.63;1.05;;;21.40;66.30;;;;;;5001199;28;20028;-77
2022/07/16 11:29:14;;;;;;;1.48;1.38;;;21.40;66.30;;;;;;5012981;28;20084;-79
2022/07/16 11:31:41;;;;;;;1.02;0.90;;;21.50;66.70;;;;;;5013811;28;20035;-79
2022/07/16 11:34:10;;;;;;;5.53;1.30;;;21.50;66.40;;;;;;4991053;28;20474;-80
2022/07/16 11:36:38;;;;;;;1.98;1.05;;;21.60;68.20;;;;;;4998879;28;20419;-78
2022/07/16 11:39:10;;;;;;;1.50;1.40;;;21.70;67.40;;;;;;5003656;28;20076;-81
2022/07/16 11:41:39;;;;;;;1.88;1.42;;;21.70;67.20;;;;;;4991866;28;20035;-77
2022/07/16 11:44:12;;;;;;;1.15;0.80;;;21.70;67.70;;;;;;4986463;28;20031;-79
2022/07/16 11:46:52;;;;;;;1.52;1.10;;;21.80;67.30;;;;;;4992372;28;20383;-85
2022/07/16 11:49:35;;;;;;;1.75;1.40;;;21.90;67.00;;;;;;4997787;28;20743;-81
2022/07/16 11:52:04;;;;;;;1.73;1.63;;;21.90;66.20;;;;;;5037532;27;20029;-78
2022/07/16 11:54:39;;;;;;;6.10;5.53;;;22.00;66.30;;;;;;5004495;28;20016;-77
2022/07/16 11:57:09;;;;;;;22.33;19.38;;;22.10;66.40;;;;;;4983650;28;20401;-79
2022/07/16 11:59:47;;;;;;;15.05;12.65;;;22.10;66.50;;;;;;5005204;28;20036;-80
2022/07/16 12:02:16;;;;;;;9.95;7.03;;;22.20;66.90;;;;;;4987779;28;20030;-78
2022/07/16 12:04:58;;;;;;;5.28;3.30;;;22.30;65.80;;;;;;4997760;28;20054;-77
2022/07/16 12:07:28;;;;;;;2.75;1.40;;;22.30;65.60;;;;;;4992057;28;20520;-77
2022/07/16 12:10:03;;;;;;;2.72;1.25;;;22.30;66.40;;;;;;4995738;28;20012;-79
2022/07/16 12:12:34;;;;;;;2.15;1.50;;;22.40;66.70;;;;;;5008649;27;20056;-78
2022/07/16 12:15:06;;;;;;;2.65;1.20;;;22.40;66.90;;;;;;4988416;28;20537;-79
2022/07/16 12:17:33;;;;;;;1.38;1.10;;;22.50;65.50;;;;;;4989153;28;20470;-81
2022/07/16 12:20:14;;;;;;;6.10;1.40;;;22.50;64.90;;;;;;4986267;28;20490;-79
2022/07/16 12:22:57;;;;;;;2.05;1.30;;;22.60;64.90;;;;;;4997989;28;20550;-81
2022/07/16 12:25:38;;;;;;;1.70;1.17;;;22.60;64.90;;;;;;4990888;28;20519;-82
2022/07/16 12:28:10;;;;;;;12.38;11.15;;;22.70;65.80;;;;;;4984950;28;20141;-79
2022/07/16 12:30:45;;;;;;;26.40;17.52;;;22.70;65.50;;;;;;4994517;28;20046;-79
2022/07/16 12:33:23;;;;;;;8.85;5.35;;;22.80;64.70;;;;;;4993183;28;20034;-80
2022/07/16 12:35:53;;;;;;;6.05;2.80;;;22.80;64.60;;;;;;4984974;28;20398;-81
2022/07/16 12:38:48;;;;;;;4.90;2.25;;;22.90;65.50;;;;;;4986343;28;20027;-78
2022/07/16 12:41:24;;;;;;;3.35;1.58;;;22.90;65.30;;;;;;4984739;28;20038;-80
2022/07/16 12:43:53;;;;;;;2.28;1.60;;;23.00;65.30;;;;;;4985654;28;20073;-78
2022/07/16 12:46:23;;;;;;;4.07;1.65;;;23.00;65.70;;;;;;4982630;28;20031;-79
2022/07/16 12:48:57;;;;;;;1.67;1.20;;;23.00;65.50;;;;;;4993021;28;20056;-79
2022/07/16 12:51:27;;;;;;;1.53;1.43;;;23.10;65.00;;;;;;4994321;28;20030;-78
2022/07/16 12:53:58;;;;;;;4.15;1.25;;;23.10;65.80;;;;;;4993166;28;20037;-75
2022/07/16 12:59:11;;;;;;;3.72;1.35;;;23.10;64.60;;;;;;4991047;28;20112;-74
2022/07/16 13:01:37;;;;;;;3.03;1.88;;;23.20;64.60;;;;;;4994723;28;20120;-75
2022/07/16 13:04:05;;;;;;;5.00;2.65;;;23.20;64.10;;;;;;4985920;28;20031;-74
2022/07/16 13:06:33;;;;;;;1.63;1.38;;;23.20;64.40;;;;;;4991733;28;20039;-76
2022/07/16 13:09:00;;;;;;;4.28;1.25;;;23.20;63.60;;;;;;4986940;28;20118;-75
2022/07/16 13:11:27;;;;;;;4.05;1.25;;;23.20;63.50;;;;;;4990158;28;20027;-72